New Dawn — WDB9910 — position and weather

sailwx.info

Track history (hours):
 
Tides and Currents Weather Stations Pressure Air Temp Water Temp Dewpoint Dewpoint Depression Visibility Wind Speed Wind Dir Waves Ship Positions

New Dawn

Owner: American River Transportation Company, St Louis, MO. More information available from US FCC via Universal Licensing System and Coast Guard Vessel Documentation Center.

Last reported at 2015-Dec-14 20:31 UTC. Time now 2016-May-31 21:53 UTC.
Position N 38°46' W 084°06'.
Warning: this ship's position is months out of date.

Type: Towing. MMSI: 366984950.

Date/timePositionNaut miles runAvg speedWind from/ knotsBaromVisibWave heightAir tempDewpointWater temp
2015-Dec-14 20:31N 38°46' W 084°06'4 3.4
2015-Dec-14 19:29N 38°48' W 084°10'1 1.2
2015-Dec-14 18:33N 38°48' W 084°11'3 3.0
2015-Dec-14 17:30N 38°50' W 084°14'3 3.4
2015-Dec-14 16:33N 38°54' W 084°14'3 3.3
2015-Dec-14 15:33N 38°56' W 084°17'3 3.3
2015-Dec-14 14:33N 38°59' W 084°18'3 3.3
2015-Dec-14 13:33N 39°02' W 084°21'3 3.4
2015-Dec-14 12:33N 39°03' W 084°25'3 3.3
2015-Dec-14 11:33N 39°06' W 084°26'3 2.5
2015-Dec-14 10:33N 39°06' W 084°29'4 3.7
2015-Dec-14 09:33N 39°05' W 084°34'3 3.1
2015-Dec-14 08:32N 39°05' W 084°38'0 0.0
2015-Dec-14 07:33N 39°05' W 084°38'0 0.0
2015-Dec-14 06:33N 39°05' W 084°38'0 0.0
2015-Dec-14 05:33N 39°05' W 084°38'0 0.0
2015-Dec-14 04:33N 39°05' W 084°38'0 0.0
2015-Dec-14 03:32N 39°05' W 084°38'0 0.0
2015-Dec-14 02:33N 39°05' W 084°38'1 1.4
2015-Dec-14 01:33N 39°06' W 084°39'3 3.4
2015-Dec-14 00:33N 39°08' W 084°43'3 2.7
2015-Dec-13 23:33N 39°08' W 084°46'8 3.2
2015-Dec-13 21:09N 39°03' W 084°54'6 3.2
2015-Dec-13 19:15N 38°57' W 084°50'  
Track history (hours):
 
Tides and Currents Weather Stations Pressure Air Temp Water Temp Dewpoint Dewpoint Depression Visibility Wind Speed Wind Dir Waves Ship Positions

New Dawn

Owner: American River Transportation Company, St Louis, MO. More information available from US FCC via Universal Licensing System and Coast Guard Vessel Documentation Center.

Last reported at 2015-Dec-14 20:31 UTC. Time now 2016-May-31 21:53 UTC.
Position N 38°46' W 084°06'.
Warning: this ship's position is months out of date.

Type: Towing. MMSI: 366984950.

Date/timePositionNaut miles runAvg speedWind from/ knotsBaromVisibWave heightAir tempDewpointWater temp
2015-Dec-14 20:31N 38°46' W 084°06'4 3.4
2015-Dec-14 19:29N 38°48' W 084°10'1 1.2
2015-Dec-14 18:33N 38°48' W 084°11'3 3.0
2015-Dec-14 17:30N 38°50' W 084°14'3 3.4
2015-Dec-14 16:33N 38°54' W 084°14'3 3.3
2015-Dec-14 15:33N 38°56' W 084°17'3 3.3
2015-Dec-14 14:33N 38°59' W 084°18'3 3.3
2015-Dec-14 13:33N 39°02' W 084°21'3 3.4
2015-Dec-14 12:33N 39°03' W 084°25'3 3.3
2015-Dec-14 11:33N 39°06' W 084°26'3 2.5
2015-Dec-14 10:33N 39°06' W 084°29'4 3.7
2015-Dec-14 09:33N 39°05' W 084°34'3 3.1
2015-Dec-14 08:32N 39°05' W 084°38'0 0.0
2015-Dec-14 07:33N 39°05' W 084°38'0 0.0
2015-Dec-14 06:33N 39°05' W 084°38'0 0.0
2015-Dec-14 05:33N 39°05' W 084°38'0 0.0
2015-Dec-14 04:33N 39°05' W 084°38'0 0.0
2015-Dec-14 03:32N 39°05' W 084°38'0 0.0
2015-Dec-14 02:33N 39°05' W 084°38'1 1.4
2015-Dec-14 01:33N 39°06' W 084°39'3 3.4
2015-Dec-14 00:33N 39°08' W 084°43'3 2.7
2015-Dec-13 23:33N 39°08' W 084°46'8 3.2
2015-Dec-13 21:09N 39°03' W 084°54'6 3.2
2015-Dec-13 19:15N 38°57' W 084°50'  

Dump ship's entire track history